createdAt,value
2018-01-20T00:02:33.761Z,35.23
2018-01-20T00:17:38.108Z,36.90
2018-01-20T00:32:40.120Z,34.80
2018-01-20T01:02:38.100Z,32.20
2018-01-20T01:17:39.715Z,26.43
2018-01-20T01:32:38.326Z,40.40
2018-01-20T02:47:38.446Z,18.37
2018-01-20T03:02:38.058Z,20.17
2018-01-20T03:17:39.443Z,21.47
2018-01-20T03:32:36.373Z,45.90
2018-01-20T03:47:40.278Z,48.47
2018-01-20T04:02:38.324Z,41.20
2018-01-20T04:17:35.572Z,48.57
2018-01-20T04:32:38.131Z,38.07
2018-01-20T04:47:40.327Z,30.30
2018-01-20T05:02:36.423Z,22.77
2018-01-20T05:17:36.860Z,24.10
2018-01-20T05:32:37.196Z,23.57
2018-01-20T05:47:36.704Z,15.53
2018-01-20T06:02:44.511Z,16.00
2018-01-20T06:17:33.679Z,21.73
2018-01-20T06:32:33.722Z,23.47
2018-01-20T06:47:33.579Z,30.30
2018-01-20T07:02:33.945Z,42.37
2018-01-20T07:17:34.434Z,67.90
2018-01-20T07:32:36.782Z,58.40
2018-01-20T07:47:37.826Z,41.13
2018-01-20T08:02:34.388Z,33.27
2018-01-20T08:17:33.114Z,25.50
2018-01-20T08:32:32.585Z,17.40
2018-01-20T08:47:33.508Z,14.17
2018-01-20T09:02:34.085Z,11.80
2018-01-20T09:17:35.043Z,13.13
2018-01-20T09:32:34.701Z,9.70
2018-01-20T09:47:36.443Z,10.93
2018-01-20T10:02:36.447Z,10.47
2018-01-20T10:17:34.806Z,16.90
2018-01-20T10:32:36.527Z,13.37
2018-01-20T10:47:35.478Z,10.00
2018-01-20T11:02:38.362Z,9.33
2018-01-20T11:17:35.020Z,9.17
2018-01-20T11:32:35.016Z,6.57
2018-01-20T11:47:40.009Z,7.83
2018-01-20T12:02:34.805Z,6.30
2018-01-20T12:32:33.554Z,8.00
2018-01-20T12:47:33.433Z,6.73
2018-01-20T13:02:36.276Z,8.00
2018-01-20T13:17:33.696Z,8.70
2018-01-20T13:32:34.352Z,7.50
2018-01-20T13:47:33.604Z,9.77
2018-01-20T14:02:34.233Z,8.27
2018-01-20T14:17:41.328Z,8.30
2018-01-20T14:32:34.671Z,9.60
2018-01-20T14:47:37.130Z,9.20
2018-01-20T15:02:34.718Z,6.60
2018-01-20T15:17:45.304Z,5.23
2018-01-20T15:32:36.853Z,7.47
2018-01-20T15:47:36.962Z,10.27
2018-01-20T16:02:37.458Z,7.47
2018-01-20T16:17:34.222Z,8.00
2018-01-20T16:32:53.729Z,7.77
2018-01-20T16:47:35.085Z,10.33
2018-01-20T17:02:38.118Z,10.07
2018-01-20T17:17:41.744Z,10.23
2018-01-20T17:32:43.190Z,9.03
2018-01-20T18:47:38.151Z,7.90
2018-01-20T19:02:38.958Z,8.63
2018-01-20T19:17:38.272Z,13.23
2018-01-20T19:32:36.552Z,12.50
2018-01-20T19:47:43.038Z,7.73
2018-01-20T20:02:35.176Z,6.60
2018-01-20T20:17:36.231Z,8.10
2018-01-20T20:32:41.651Z,9.67
2018-01-20T20:47:41.862Z,7.57
2018-01-20T21:02:44.574Z,8.97
2018-01-20T21:17:38.506Z,7.10
2018-01-20T21:32:37.559Z,6.70
2018-01-20T21:47:36.549Z,6.93
2018-01-20T22:02:37.061Z,8.40
2018-01-20T22:17:35.606Z,7.30
2018-01-20T22:32:35.282Z,8.03
2018-01-20T22:47:36.406Z,7.90
2018-01-20T23:02:35.927Z,8.67
2018-01-20T23:17:34.957Z,9.30
2018-01-20T23:32:36.700Z,8.97
2018-01-20T23:47:34.782Z,8.20
